sensor_id;sensor_type;location;lat;lon;timestamp;temperature;humidity
16074;DHT22;8141;52.664;5.074;2023-03-25T00:00:09;19.50;52.50
16074;DHT22;8141;52.664;5.074;2023-03-25T00:02:38;19.50;52.50
16074;DHT22;8141;52.664;5.074;2023-03-25T00:05:05;19.50;52.50
16074;DHT22;8141;52.664;5.074;2023-03-25T00:07:31;19.50;52.50
16074;DHT22;8141;52.664;5.074;2023-03-25T00:09:58;19.50;52.40
16074;DHT22;8141;52.664;5.074;2023-03-25T00:12:23;19.40;52.50
16074;DHT22;8141;52.664;5.074;2023-03-25T00:14:50;19.40;52.50
16074;DHT22;8141;52.664;5.074;2023-03-25T00:17:20;19.40;52.50
16074;DHT22;8141;52.664;5.074;2023-03-25T00:19:47;19.40;52.50
16074;DHT22;8141;52.664;5.074;2023-03-25T00:22:15;19.40;52.60
16074;DHT22;8141;52.664;5.074;2023-03-25T00:24:45;19.40;52.60
16074;DHT22;8141;52.664;5.074;2023-03-25T00:27:10;19.40;52.50
16074;DHT22;8141;52.664;5.074;2023-03-25T00:29:39;19.40;52.60
16074;DHT22;8141;52.664;5.074;2023-03-25T00:32:06;19.40;52.50
16074;DHT22;8141;52.664;5.074;2023-03-25T00:34:32;19.40;52.50
16074;DHT22;8141;52.664;5.074;2023-03-25T00:36:59;19.40;52.50
16074;DHT22;8141;52.664;5.074;2023-03-25T00:39:27;19.40;52.50
16074;DHT22;8141;52.664;5.074;2023-03-25T00:41:53;19.40;52.50
16074;DHT22;8141;52.664;5.074;2023-03-25T00:44:21;19.40;52.60
16074;DHT22;8141;52.664;5.074;2023-03-25T00:46:47;19.40;52.60
16074;DHT22;8141;52.664;5.074;2023-03-25T00:49:13;19.40;52.60
16074;DHT22;8141;52.664;5.074;2023-03-25T00:51:39;19.40;52.70
16074;DHT22;8141;52.664;5.074;2023-03-25T00:54:04;19.50;53.20
16074;DHT22;8141;52.664;5.074;2023-03-25T00:56:30;19.50;52.90
16074;DHT22;8141;52.664;5.074;2023-03-25T00:58:56;19.50;53.40
16074;DHT22;8141;52.664;5.074;2023-03-25T01:01:25;19.60;52.90
16074;DHT22;8141;52.664;5.074;2023-03-25T01:03:54;19.60;52.90
16074;DHT22;8141;52.664;5.074;2023-03-25T01:06:25;19.60;52.90
16074;DHT22;8141;52.664;5.074;2023-03-25T01:09:03;19.60;53.00
16074;DHT22;8141;52.664;5.074;2023-03-25T01:11:31;19.70;53.00
16074;DHT22;8141;52.664;5.074;2023-03-25T01:14:05;19.70;53.00
16074;DHT22;8141;52.664;5.074;2023-03-25T01:16:32;19.60;53.00
16074;DHT22;8141;52.664;5.074;2023-03-25T01:18:58;19.70;53.00
16074;DHT22;8141;52.664;5.074;2023-03-25T01:21:24;19.70;53.10
16074;DHT22;8141;52.664;5.074;2023-03-25T01:23:50;19.70;53.20
16074;DHT22;8141;52.664;5.074;2023-03-25T01:26:16;19.70;53.20
16074;DHT22;8141;52.664;5.074;2023-03-25T01:28:43;19.70;53.20
16074;DHT22;8141;52.664;5.074;2023-03-25T01:31:11;19.70;53.20
16074;DHT22;8141;52.664;5.074;2023-03-25T01:33:40;19.70;53.30
16074;DHT22;8141;52.664;5.074;2023-03-25T01:36:07;19.70;53.20
16074;DHT22;8141;52.664;5.074;2023-03-25T01:38:38;19.70;53.30
16074;DHT22;8141;52.664;5.074;2023-03-25T01:41:05;19.70;53.40
16074;DHT22;8141;52.664;5.074;2023-03-25T01:43:32;19.70;53.30
16074;DHT22;8141;52.664;5.074;2023-03-25T01:45:58;19.80;53.40
16074;DHT22;8141;52.664;5.074;2023-03-25T01:48:37;19.80;53.40
16074;DHT22;8141;52.664;5.074;2023-03-25T01:51:15;19.80;53.40
16074;DHT22;8141;52.664;5.074;2023-03-25T01:53:43;19.80;53.40
16074;DHT22;8141;52.664;5.074;2023-03-25T01:56:11;19.80;53.40
16074;DHT22;8141;52.664;5.074;2023-03-25T01:58:39;19.80;53.40
16074;DHT22;8141;52.664;5.074;2023-03-25T02:01:06;19.80;53.40
16074;DHT22;8141;52.664;5.074;2023-03-25T02:03:39;19.80;53.50
16074;DHT22;8141;52.664;5.074;2023-03-25T02:06:21;19.80;53.50
16074;DHT22;8141;52.664;5.074;2023-03-25T02:08:53;19.80;53.50
16074;DHT22;8141;52.664;5.074;2023-03-25T02:11:21;19.80;53.50
16074;DHT22;8141;52.664;5.074;2023-03-25T02:13:50;19.80;53.70
16074;DHT22;8141;52.664;5.074;2023-03-25T02:19:50;19.90;53.80
16074;DHT22;8141;52.664;5.074;2023-03-25T02:25:35;19.90;53.70
16074;DHT22;8141;52.664;5.074;2023-03-25T02:47:55;19.90;53.90
16074;DHT22;8141;52.664;5.074;2023-03-25T02:50:41;19.90;53.90
16074;DHT22;8141;52.664;5.074;2023-03-25T02:53:14;19.90;53.90
16074;DHT22;8141;52.664;5.074;2023-03-25T02:55:44;19.90;54.00
16074;DHT22;8141;52.664;5.074;2023-03-25T02:58:15;19.90;53.80
16074;DHT22;8141;52.664;5.074;2023-03-25T03:00:42;19.90;53.90
16074;DHT22;8141;52.664;5.074;2023-03-25T03:03:09;19.90;54.00
16074;DHT22;8141;52.664;5.074;2023-03-25T03:05:43;19.90;53.90
16074;DHT22;8141;52.664;5.074;2023-03-25T03:08:39;19.90;54.00
16074;DHT22;8141;52.664;5.074;2023-03-25T03:11:31;19.90;54.00
16074;DHT22;8141;52.664;5.074;2023-03-25T03:17:48;19.90;54.00
16074;DHT22;8141;52.664;5.074;2023-03-25T03:20:29;19.90;54.00
16074;DHT22;8141;52.664;5.074;2023-03-25T03:26:07;19.90;54.10
16074;DHT22;8141;52.664;5.074;2023-03-25T03:28:45;19.90;54.10
16074;DHT22;8141;52.664;5.074;2023-03-25T03:31:19;19.90;54.20
16074;DHT22;8141;52.664;5.074;2023-03-25T03:33:56;19.90;54.10
16074;DHT22;8141;52.664;5.074;2023-03-25T03:36:33;19.90;54.10
16074;DHT22;8141;52.664;5.074;2023-03-25T03:39:12;20.00;54.20
16074;DHT22;8141;52.664;5.074;2023-03-25T03:41:42;19.90;54.20
16074;DHT22;8141;52.664;5.074;2023-03-25T03:44:13;19.90;54.30
16074;DHT22;8141;52.664;5.074;2023-03-25T03:46:47;19.90;54.30
16074;DHT22;8141;52.664;5.074;2023-03-25T03:49:22;19.90;54.10
16074;DHT22;8141;52.664;5.074;2023-03-25T03:51:56;19.90;54.20
16074;DHT22;8141;52.664;5.074;2023-03-25T03:54:27;19.90;54.20
16074;DHT22;8141;52.664;5.074;2023-03-25T03:57:19;19.90;54.30
16074;DHT22;8141;52.664;5.074;2023-03-25T04:00:04;19.90;54.30
16074;DHT22;8141;52.664;5.074;2023-03-25T04:05:17;19.90;54.20
16074;DHT22;8141;52.664;5.074;2023-03-25T04:07:58;20.00;54.30
16074;DHT22;8141;52.664;5.074;2023-03-25T04:10:35;19.90;54.30
16074;DHT22;8141;52.664;5.074;2023-03-25T04:13:08;20.00;54.40
16074;DHT22;8141;52.664;5.074;2023-03-25T04:15:38;19.90;54.20
16074;DHT22;8141;52.664;5.074;2023-03-25T04:18:05;20.00;54.40
16074;DHT22;8141;52.664;5.074;2023-03-25T04:20:32;20.00;54.50
16074;DHT22;8141;52.664;5.074;2023-03-25T04:23:02;20.00;54.50
16074;DHT22;8141;52.664;5.074;2023-03-25T04:25:29;20.00;54.40
16074;DHT22;8141;52.664;5.074;2023-03-25T04:27:57;20.00;54.50
16074;DHT22;8141;52.664;5.074;2023-03-25T04:30:25;20.00;54.60
16074;DHT22;8141;52.664;5.074;2023-03-25T04:32:52;20.00;54.50
16074;DHT22;8141;52.664;5.074;2023-03-25T04:35:19;20.00;54.50
16074;DHT22;8141;52.664;5.074;2023-03-25T04:37:45;20.00;54.60
16074;DHT22;8141;52.664;5.074;2023-03-25T04:40:14;20.00;54.50
16074;DHT22;8141;52.664;5.074;2023-03-25T04:42:46;20.00;54.50
16074;DHT22;8141;52.664;5.074;2023-03-25T04:45:13;20.00;54.50
16074;DHT22;8141;52.664;5.074;2023-03-25T04:47:42;20.00;54.70
16074;DHT22;8141;52.664;5.074;2023-03-25T04:50:20;20.00;54.70
16074;DHT22;8141;52.664;5.074;2023-03-25T04:52:48;20.00;54.50
16074;DHT22;8141;52.664;5.074;2023-03-25T04:55:16;20.00;54.50
16074;DHT22;8141;52.664;5.074;2023-03-25T04:57:45;20.00;54.60
16074;DHT22;8141;52.664;5.074;2023-03-25T05:00:14;20.00;54.60
16074;DHT22;8141;52.664;5.074;2023-03-25T05:02:49;20.00;54.50
16074;DHT22;8141;52.664;5.074;2023-03-25T05:05:20;20.00;54.70
16074;DHT22;8141;52.664;5.074;2023-03-25T05:07:52;20.00;54.70
16074;DHT22;8141;52.664;5.074;2023-03-25T05:10:21;20.00;54.60
16074;DHT22;8141;52.664;5.074;2023-03-25T05:12:48;20.00;54.70
16074;DHT22;8141;52.664;5.074;2023-03-25T05:15:15;20.00;54.70
16074;DHT22;8141;52.664;5.074;2023-03-25T05:17:44;20.00;54.70
16074;DHT22;8141;52.664;5.074;2023-03-25T05:20:10;20.00;54.70
16074;DHT22;8141;52.664;5.074;2023-03-25T05:22:37;20.00;54.60
16074;DHT22;8141;52.664;5.074;2023-03-25T05:25:05;20.00;54.60
16074;DHT22;8141;52.664;5.074;2023-03-25T05:27:32;20.00;54.70
16074;DHT22;8141;52.664;5.074;2023-03-25T05:29:59;20.00;54.70
16074;DHT22;8141;52.664;5.074;2023-03-25T05:32:26;20.00;54.80
16074;DHT22;8141;52.664;5.074;2023-03-25T05:34:55;20.00;54.70
16074;DHT22;8141;52.664;5.074;2023-03-25T05:37:21;20.00;54.80
16074;DHT22;8141;52.664;5.074;2023-03-25T05:39:47;20.10;54.70
16074;DHT22;8141;52.664;5.074;2023-03-25T05:42:13;20.00;54.70
16074;DHT22;8141;52.664;5.074;2023-03-25T05:44:39;20.10;54.70
16074;DHT22;8141;52.664;5.074;2023-03-25T05:47:23;20.00;54.80
16074;DHT22;8141;52.664;5.074;2023-03-25T05:49:50;20.00;54.90
16074;DHT22;8141;52.664;5.074;2023-03-25T05:52:17;20.00;54.80
16074;DHT22;8141;52.664;5.074;2023-03-25T05:54:44;20.00;54.90
16074;DHT22;8141;52.664;5.074;2023-03-25T05:57:12;20.10;55.00
16074;DHT22;8141;52.664;5.074;2023-03-25T05:59:38;20.00;54.80
16074;DHT22;8141;52.664;5.074;2023-03-25T06:02:06;20.00;54.80
16074;DHT22;8141;52.664;5.074;2023-03-25T06:04:35;20.10;55.00
16074;DHT22;8141;52.664;5.074;2023-03-25T06:07:12;20.10;55.00
16074;DHT22;8141;52.664;5.074;2023-03-25T06:09:42;20.10;55.00
16074;DHT22;8141;52.664;5.074;2023-03-25T06:12:12;20.10;54.80
16074;DHT22;8141;52.664;5.074;2023-03-25T06:14:39;20.00;54.90
16074;DHT22;8141;52.664;5.074;2023-03-25T06:17:08;20.10;54.90
16074;DHT22;8141;52.664;5.074;2023-03-25T06:19:35;20.10;55.00
16074;DHT22;8141;52.664;5.074;2023-03-25T06:22:05;20.00;55.00
16074;DHT22;8141;52.664;5.074;2023-03-25T06:24:37;20.10;54.80
16074;DHT22;8141;52.664;5.074;2023-03-25T06:27:10;20.10;55.00
16074;DHT22;8141;52.664;5.074;2023-03-25T06:29:38;20.10;55.00
16074;DHT22;8141;52.664;5.074;2023-03-25T06:32:07;20.10;55.00
16074;DHT22;8141;52.664;5.074;2023-03-25T06:34:33;20.10;55.00
16074;DHT22;8141;52.664;5.074;2023-03-25T06:37:00;20.10;55.00
16074;DHT22;8141;52.664;5.074;2023-03-25T06:39:29;20.10;55.10
16074;DHT22;8141;52.664;5.074;2023-03-25T06:42:00;20.10;55.00
16074;DHT22;8141;52.664;5.074;2023-03-25T06:44:27;20.10;55.20
16074;DHT22;8141;52.664;5.074;2023-03-25T06:46:53;20.10;55.10
16074;DHT22;8141;52.664;5.074;2023-03-25T06:49:18;20.10;55.20
16074;DHT22;8141;52.664;5.074;2023-03-25T06:51:45;20.10;55.20
16074;DHT22;8141;52.664;5.074;2023-03-25T06:54:10;20.10;55.20
16074;DHT22;8141;52.664;5.074;2023-03-25T06:56:36;20.10;55.10
16074;DHT22;8141;52.664;5.074;2023-03-25T06:59:02;20.10;55.20
16074;DHT22;8141;52.664;5.074;2023-03-25T07:01:28;20.10;55.20
16074;DHT22;8141;52.664;5.074;2023-03-25T07:03:54;20.10;55.10
16074;DHT22;8141;52.664;5.074;2023-03-25T07:06:21;20.10;55.20
16074;DHT22;8141;52.664;5.074;2023-03-25T07:08:48;20.10;55.40
16074;DHT22;8141;52.664;5.074;2023-03-25T07:11:16;20.10;55.10
16074;DHT22;8141;52.664;5.074;2023-03-25T07:13:44;20.10;55.80
16074;DHT22;8141;52.664;5.074;2023-03-25T07:16:10;20.10;55.20
16074;DHT22;8141;52.664;5.074;2023-03-25T07:18:36;20.10;55.20
16074;DHT22;8141;52.664;5.074;2023-03-25T07:21:02;20.10;55.10
16074;DHT22;8141;52.664;5.074;2023-03-25T07:23:28;20.10;55.20
16074;DHT22;8141;52.664;5.074;2023-03-25T07:25:54;20.10;55.80
16074;DHT22;8141;52.664;5.074;2023-03-25T07:28:21;20.10;55.20
16074;DHT22;8141;52.664;5.074;2023-03-25T07:30:47;20.10;55.40
16074;DHT22;8141;52.664;5.074;2023-03-25T07:33:13;20.10;55.30
16074;DHT22;8141;52.664;5.074;2023-03-25T07:35:39;20.10;55.20
16074;DHT22;8141;52.664;5.074;2023-03-25T07:38:05;20.10;55.30
16074;DHT22;8141;52.664;5.074;2023-03-25T07:40:31;20.10;55.30
16074;DHT22;8141;52.664;5.074;2023-03-25T07:42:56;20.10;55.40
16074;DHT22;8141;52.664;5.074;2023-03-25T07:45:22;20.10;55.40
16074;DHT22;8141;52.664;5.074;2023-03-25T07:47:51;20.10;55.40
16074;DHT22;8141;52.664;5.074;2023-03-25T07:50:19;20.10;55.20
16074;DHT22;8141;52.664;5.074;2023-03-25T07:52:46;20.10;55.10
16074;DHT22;8141;52.664;5.074;2023-03-25T07:55:12;20.00;55.10
16074;DHT22;8141;52.664;5.074;2023-03-25T07:57:39;20.00;55.00
16074;DHT22;8141;52.664;5.074;2023-03-25T08:00:07;20.00;54.90
16074;DHT22;8141;52.664;5.074;2023-03-25T08:02:34;19.90;54.80
16074;DHT22;8141;52.664;5.074;2023-03-25T08:04:59;19.90;54.70
16074;DHT22;8141;52.664;5.074;2023-03-25T08:07:25;19.90;54.70
16074;DHT22;8141;52.664;5.074;2023-03-25T08:09:53;19.90;54.40
16074;DHT22;8141;52.664;5.074;2023-03-25T08:12:18;19.90;54.50
16074;DHT22;8141;52.664;5.074;2023-03-25T08:14:45;19.90;54.60
16074;DHT22;8141;52.664;5.074;2023-03-25T08:17:11;19.90;54.50
16074;DHT22;8141;52.664;5.074;2023-03-25T08:19:36;19.90;54.50
16074;DHT22;8141;52.664;5.074;2023-03-25T08:22:03;19.90;54.50
16074;DHT22;8141;52.664;5.074;2023-03-25T08:24:28;19.90;54.50
16074;DHT22;8141;52.664;5.074;2023-03-25T08:26:57;19.90;54.50
16074;DHT22;8141;52.664;5.074;2023-03-25T08:29:25;19.90;54.50
16074;DHT22;8141;52.664;5.074;2023-03-25T08:31:52;19.90;54.30
16074;DHT22;8141;52.664;5.074;2023-03-25T08:34:19;19.80;54.20
16074;DHT22;8141;52.664;5.074;2023-03-25T08:36:46;19.90;54.30
16074;DHT22;8141;52.664;5.074;2023-03-25T08:39:12;19.90;54.80
16074;DHT22;8141;52.664;5.074;2023-03-25T08:41:42;19.90;54.20
16074;DHT22;8141;52.664;5.074;2023-03-25T08:44:09;19.80;54.00
16074;DHT22;8141;52.664;5.074;2023-03-25T08:46:36;19.80;54.00
16074;DHT22;8141;52.664;5.074;2023-03-25T08:49:03;19.80;54.00
16074;DHT22;8141;52.664;5.074;2023-03-25T08:51:29;19.80;54.00
16074;DHT22;8141;52.664;5.074;2023-03-25T08:53:55;19.80;53.90
16074;DHT22;8141;52.664;5.074;2023-03-25T08:56:20;19.80;53.90
16074;DHT22;8141;52.664;5.074;2023-03-25T08:58:46;19.80;53.80
16074;DHT22;8141;52.664;5.074;2023-03-25T09:01:12;19.80;53.70
16074;DHT22;8141;52.664;5.074;2023-03-25T09:03:37;19.80;53.80
16074;DHT22;8141;52.664;5.074;2023-03-25T09:06:05;19.80;53.70
16074;DHT22;8141;52.664;5.074;2023-03-25T09:08:32;19.70;53.60
16074;DHT22;8141;52.664;5.074;2023-03-25T09:10:59;19.80;53.70
16074;DHT22;8141;52.664;5.074;2023-03-25T09:13:25;19.70;53.60
16074;DHT22;8141;52.664;5.074;2023-03-25T09:15:51;19.80;54.20
16074;DHT22;8141;52.664;5.074;2023-03-25T09:18:17;19.80;53.60
16074;DHT22;8141;52.664;5.074;2023-03-25T09:20:43;19.80;53.50
16074;DHT22;8141;52.664;5.074;2023-03-25T09:23:13;19.70;53.50
16074;DHT22;8141;52.664;5.074;2023-03-25T09:25:39;19.70;53.50
16074;DHT22;8141;52.664;5.074;2023-03-25T09:28:05;19.70;53.50
16074;DHT22;8141;52.664;5.074;2023-03-25T09:30:31;19.70;53.40
16074;DHT22;8141;52.664;5.074;2023-03-25T09:32:57;19.70;53.40
16074;DHT22;8141;52.664;5.074;2023-03-25T09:35:22;19.70;53.50
16074;DHT22;8141;52.664;5.074;2023-03-25T09:37:48;19.70;53.40
16074;DHT22;8141;52.664;5.074;2023-03-25T09:40:15;19.70;53.40
16074;DHT22;8141;52.664;5.074;2023-03-25T09:43:22;19.70;53.40
16074;DHT22;8141;52.664;5.074;2023-03-25T09:45:52;19.70;53.40
16074;DHT22;8141;52.664;5.074;2023-03-25T09:48:35;19.70;53.90
16074;DHT22;8141;52.664;5.074;2023-03-25T09:51:14;19.70;53.40
16074;DHT22;8141;52.664;5.074;2023-03-25T09:54:17;19.70;53.30
16074;DHT22;8141;52.664;5.074;2023-03-25T09:57:26;19.70;53.50
16074;DHT22;8141;52.664;5.074;2023-03-25T09:59:56;19.60;53.30
16074;DHT22;8141;52.664;5.074;2023-03-25T10:02:40;19.60;53.30
16074;DHT22;8141;52.664;5.074;2023-03-25T10:08:13;19.60;53.30
16074;DHT22;8141;52.664;5.074;2023-03-25T10:11:01;19.70;53.30
16074;DHT22;8141;52.664;5.074;2023-03-25T10:19:45;19.70;53.50
16074;DHT22;8141;52.664;5.074;2023-03-25T10:25:38;19.70;53.80
16074;DHT22;8141;52.664;5.074;2023-03-25T10:28:11;19.70;53.70
16074;DHT22;8141;52.664;5.074;2023-03-25T10:30:43;19.70;53.60
16074;DHT22;8141;52.664;5.074;2023-03-25T10:36:03;19.70;53.60
16074;DHT22;8141;52.664;5.074;2023-03-25T10:38:32;19.70;53.60
16074;DHT22;8141;52.664;5.074;2023-03-25T10:44:06;19.70;53.40
16074;DHT22;8141;52.664;5.074;2023-03-25T10:49:28;19.70;53.50
16074;DHT22;8141;52.664;5.074;2023-03-25T10:51:55;19.70;53.50
16074;DHT22;8141;52.664;5.074;2023-03-25T10:54:31;19.70;53.50
16074;DHT22;8141;52.664;5.074;2023-03-25T10:57:08;19.70;53.40
16074;DHT22;8141;52.664;5.074;2023-03-25T11:02:21;19.70;53.30
16074;DHT22;8141;52.664;5.074;2023-03-25T11:04:56;19.70;53.30
16074;DHT22;8141;52.664;5.074;2023-03-25T11:07:39;19.70;53.20
16074;DHT22;8141;52.664;5.074;2023-03-25T11:10:22;19.80;53.30
16074;DHT22;8141;52.664;5.074;2023-03-25T11:12:52;19.70;53.30
16074;DHT22;8141;52.664;5.074;2023-03-25T11:15:30;19.80;53.20
16074;DHT22;8141;52.664;5.074;2023-03-25T11:18:04;19.80;53.30
16074;DHT22;8141;52.664;5.074;2023-03-25T11:20:46;19.80;53.20
16074;DHT22;8141;52.664;5.074;2023-03-25T11:23:35;19.80;53.20
16074;DHT22;8141;52.664;5.074;2023-03-25T11:26:12;19.80;53.00
16074;DHT22;8141;52.664;5.074;2023-03-25T11:28:45;19.80;53.20
16074;DHT22;8141;52.664;5.074;2023-03-25T11:31:21;19.80;53.20
16074;DHT22;8141;52.664;5.074;2023-03-25T11:37:05;19.80;53.10
16074;DHT22;8141;52.664;5.074;2023-03-25T11:39:40;19.80;53.20
16074;DHT22;8141;52.664;5.074;2023-03-25T11:42:12;19.80;52.90
16074;DHT22;8141;52.664;5.074;2023-03-25T11:44:39;19.80;52.80
16074;DHT22;8141;52.664;5.074;2023-03-25T11:47:07;19.80;53.10
16074;DHT22;8141;52.664;5.074;2023-03-25T11:49:35;19.80;53.00
16074;DHT22;8141;52.664;5.074;2023-03-25T11:52:26;19.80;53.00
16074;DHT22;8141;52.664;5.074;2023-03-25T11:54:56;19.80;53.50
16074;DHT22;8141;52.664;5.074;2023-03-25T11:57:26;19.80;53.00
16074;DHT22;8141;52.664;5.074;2023-03-25T12:00:36;19.80;52.70
16074;DHT22;8141;52.664;5.074;2023-03-25T12:05:36;19.80;52.90
16074;DHT22;8141;52.664;5.074;2023-03-25T12:11:06;19.90;52.90
16074;DHT22;8141;52.664;5.074;2023-03-25T12:13:51;19.90;52.90
16074;DHT22;8141;52.664;5.074;2023-03-25T12:20:02;19.90;52.90
16074;DHT22;8141;52.664;5.074;2023-03-25T12:22:43;19.90;52.90
16074;DHT22;8141;52.664;5.074;2023-03-25T12:25:20;19.80;52.80
16074;DHT22;8141;52.664;5.074;2023-03-25T12:31:43;19.90;52.90
16074;DHT22;8141;52.664;5.074;2023-03-25T12:33:58;19.90;52.90
16074;DHT22;8141;52.664;5.074;2023-03-25T12:43:03;19.90;52.80
16074;DHT22;8141;52.664;5.074;2023-03-25T12:48:53;19.90;52.80
16074;DHT22;8141;52.664;5.074;2023-03-25T13:00:33;19.90;52.40
16074;DHT22;8141;52.664;5.074;2023-03-25T13:09:23;20.00;52.60
16074;DHT22;8141;52.664;5.074;2023-03-25T13:11:55;20.00;52.60
16074;DHT22;8141;52.664;5.074;2023-03-25T13:14:44;20.00;52.50
16074;DHT22;8141;52.664;5.074;2023-03-25T13:17:39;20.00;52.40
16074;DHT22;8141;52.664;5.074;2023-03-25T13:20:09;20.00;52.40
16074;DHT22;8141;52.664;5.074;2023-03-25T13:22:42;20.00;52.50
16074;DHT22;8141;52.664;5.074;2023-03-25T13:25:41;20.00;52.40
16074;DHT22;8141;52.664;5.074;2023-03-25T13:28:33;20.00;52.50
16074;DHT22;8141;52.664;5.074;2023-03-25T13:31:09;20.00;52.50
16074;DHT22;8141;52.664;5.074;2023-03-25T13:33:46;19.90;52.40
16074;DHT22;8141;52.664;5.074;2023-03-25T13:36:33;20.00;52.60
16074;DHT22;8141;52.664;5.074;2023-03-25T13:39:23;20.00;52.70
16074;DHT22;8141;52.664;5.074;2023-03-25T13:42:05;20.00;52.70
16074;DHT22;8141;52.664;5.074;2023-03-25T13:44:39;20.00;52.90
16074;DHT22;8141;52.664;5.074;2023-03-25T13:47:18;20.00;53.00
16074;DHT22;8141;52.664;5.074;2023-03-25T13:52:16;20.00;53.10
16074;DHT22;8141;52.664;5.074;2023-03-25T13:54:51;20.00;53.00
16074;DHT22;8141;52.664;5.074;2023-03-25T14:13:07;19.80;53.20
16074;DHT22;8141;52.664;5.074;2023-03-25T14:15:37;19.80;53.30
16074;DHT22;8141;52.664;5.074;2023-03-25T14:18:15;19.80;53.40
16074;DHT22;8141;52.664;5.074;2023-03-25T14:20:42;19.80;53.30
16074;DHT22;8141;52.664;5.074;2023-03-25T14:23:14;19.80;53.40
16074;DHT22;8141;52.664;5.074;2023-03-25T14:25:53;19.80;53.30
16074;DHT22;8141;52.664;5.074;2023-03-25T14:28:39;19.90;53.50
16074;DHT22;8141;52.664;5.074;2023-03-25T14:44:34;19.80;53.30
16074;DHT22;8141;52.664;5.074;2023-03-25T14:49:50;19.80;53.50
16074;DHT22;8141;52.664;5.074;2023-03-25T14:52:50;19.90;53.30
16074;DHT22;8141;52.664;5.074;2023-03-25T14:55:29;19.80;53.20
16074;DHT22;8141;52.664;5.074;2023-03-25T14:58:02;19.80;53.30
16074;DHT22;8141;52.664;5.074;2023-03-25T15:00:34;19.90;53.30
16074;DHT22;8141;52.664;5.074;2023-03-25T15:03:12;19.90;53.20
16074;DHT22;8141;52.664;5.074;2023-03-25T15:05:43;19.90;53.10
16074;DHT22;8141;52.664;5.074;2023-03-25T15:08:10;19.90;53.20
16074;DHT22;8141;52.664;5.074;2023-03-25T15:10:44;19.80;53.20
16074;DHT22;8141;52.664;5.074;2023-03-25T15:13:37;19.80;53.20
16074;DHT22;8141;52.664;5.074;2023-03-25T15:19:08;19.80;53.20
16074;DHT22;8141;52.664;5.074;2023-03-25T15:32:56;19.80;53.20
16074;DHT22;8141;52.664;5.074;2023-03-25T15:36:00;19.70;53.10
16074;DHT22;8141;52.664;5.074;2023-03-25T15:53:01;19.70;53.00
16074;DHT22;8141;52.664;5.074;2023-03-25T15:55:40;19.70;53.20
16074;DHT22;8141;52.664;5.074;2023-03-25T15:58:26;19.70;52.90
16074;DHT22;8141;52.664;5.074;2023-03-25T16:01:06;19.80;53.00
16074;DHT22;8141;52.664;5.074;2023-03-25T16:03:37;19.70;53.00
16074;DHT22;8141;52.664;5.074;2023-03-25T16:06:05;19.80;52.90
16074;DHT22;8141;52.664;5.074;2023-03-25T16:08:36;19.80;53.00
16074;DHT22;8141;52.664;5.074;2023-03-25T16:14:01;19.80;52.80
16074;DHT22;8141;52.664;5.074;2023-03-25T16:16:28;19.80;52.90
16074;DHT22;8141;52.664;5.074;2023-03-25T16:18:59;19.80;52.80
16074;DHT22;8141;52.664;5.074;2023-03-25T16:21:29;19.80;52.90
16074;DHT22;8141;52.664;5.074;2023-03-25T16:24:00;19.80;52.80
16074;DHT22;8141;52.664;5.074;2023-03-25T16:26:40;19.80;52.80
16074;DHT22;8141;52.664;5.074;2023-03-25T16:29:28;19.80;52.90
16074;DHT22;8141;52.664;5.074;2023-03-25T16:32:02;19.80;52.90
16074;DHT22;8141;52.664;5.074;2023-03-25T16:34:33;19.80;53.00
16074;DHT22;8141;52.664;5.074;2023-03-25T16:37:03;19.80;52.60
16074;DHT22;8141;52.664;5.074;2023-03-25T16:39:32;19.80;52.90
16074;DHT22;8141;52.664;5.074;2023-03-25T16:42:02;19.80;52.80
16074;DHT22;8141;52.664;5.074;2023-03-25T16:44:35;19.80;52.90
16074;DHT22;8141;52.664;5.074;2023-03-25T16:47:02;19.70;53.20
16074;DHT22;8141;52.664;5.074;2023-03-25T16:49:36;19.80;52.80
16074;DHT22;8141;52.664;5.074;2023-03-25T16:52:08;19.80;52.80
16074;DHT22;8141;52.664;5.074;2023-03-25T16:57:27;19.80;52.80
16074;DHT22;8141;52.664;5.074;2023-03-25T16:59:55;19.70;52.70
16074;DHT22;8141;52.664;5.074;2023-03-25T17:02:37;19.70;52.80
16074;DHT22;8141;52.664;5.074;2023-03-25T17:05:31;19.70;52.70
16074;DHT22;8141;52.664;5.074;2023-03-25T17:08:01;19.70;52.80
16074;DHT22;8141;52.664;5.074;2023-03-25T17:10:30;19.80;52.80
16074;DHT22;8141;52.664;5.074;2023-03-25T17:13:18;19.70;52.60
16074;DHT22;8141;52.664;5.074;2023-03-25T17:15:50;19.70;52.60
16074;DHT22;8141;52.664;5.074;2023-03-25T17:18:17;19.70;53.10
16074;DHT22;8141;52.664;5.074;2023-03-25T17:20:45;19.70;52.90
16074;DHT22;8141;52.664;5.074;2023-03-25T17:23:44;19.70;52.80
16074;DHT22;8141;52.664;5.074;2023-03-25T17:26:17;19.70;52.80
16074;DHT22;8141;52.664;5.074;2023-03-25T17:31:38;19.70;52.80
16074;DHT22;8141;52.664;5.074;2023-03-25T17:34:22;19.70;52.70
16074;DHT22;8141;52.664;5.074;2023-03-25T17:36:56;19.70;52.70
16074;DHT22;8141;52.664;5.074;2023-03-25T17:39:25;19.70;52.80
16074;DHT22;8141;52.664;5.074;2023-03-25T17:42:18;19.70;52.80
16074;DHT22;8141;52.664;5.074;2023-03-25T17:44:48;19.70;52.60
16074;DHT22;8141;52.664;5.074;2023-03-25T17:47:16;19.70;52.60
16074;DHT22;8141;52.664;5.074;2023-03-25T17:49:44;19.70;52.60
16074;DHT22;8141;52.664;5.074;2023-03-25T17:52:10;19.70;52.50
16074;DHT22;8141;52.664;5.074;2023-03-25T17:54:36;19.70;52.60
16074;DHT22;8141;52.664;5.074;2023-03-25T17:57:31;19.60;52.70
16074;DHT22;8141;52.664;5.074;2023-03-25T17:59:57;19.70;52.70
16074;DHT22;8141;52.664;5.074;2023-03-25T18:02:23;19.70;52.60
16074;DHT22;8141;52.664;5.074;2023-03-25T18:04:48;19.70;52.70
16074;DHT22;8141;52.664;5.074;2023-03-25T18:07:14;19.70;52.50
16074;DHT22;8141;52.664;5.074;2023-03-25T18:09:40;19.70;52.50
16074;DHT22;8141;52.664;5.074;2023-03-25T18:12:06;19.70;52.60
16074;DHT22;8141;52.664;5.074;2023-03-25T18:14:32;19.70;52.60
16074;DHT22;8141;52.664;5.074;2023-03-25T18:16:59;19.60;52.60
16074;DHT22;8141;52.664;5.074;2023-03-25T18:19:26;19.60;52.60
16074;DHT22;8141;52.664;5.074;2023-03-25T18:21:55;19.60;52.60
16074;DHT22;8141;52.664;5.074;2023-03-25T18:24:21;19.70;52.70
16074;DHT22;8141;52.664;5.074;2023-03-25T18:26:47;19.60;53.20
16074;DHT22;8141;52.664;5.074;2023-03-25T18:29:19;19.70;52.60
16074;DHT22;8141;52.664;5.074;2023-03-25T18:31:50;19.70;52.60
16074;DHT22;8141;52.664;5.074;2023-03-25T18:34:17;19.70;52.60
16074;DHT22;8141;52.664;5.074;2023-03-25T18:36:43;19.70;52.70
16074;DHT22;8141;52.664;5.074;2023-03-25T18:39:14;19.70;52.60
16074;DHT22;8141;52.664;5.074;2023-03-25T18:41:41;19.70;52.60
16074;DHT22;8141;52.664;5.074;2023-03-25T18:44:08;19.60;52.60
16074;DHT22;8141;52.664;5.074;2023-03-25T18:46:34;19.60;52.50
16074;DHT22;8141;52.664;5.074;2023-03-25T18:49:00;19.70;52.60
16074;DHT22;8141;52.664;5.074;2023-03-25T18:51:28;19.70;52.70
16074;DHT22;8141;52.664;5.074;2023-03-25T18:53:54;19.70;52.60
16074;DHT22;8141;52.664;5.074;2023-03-25T18:56:20;19.70;52.70
16074;DHT22;8141;52.664;5.074;2023-03-25T18:58:46;19.70;52.70
16074;DHT22;8141;52.664;5.074;2023-03-25T19:01:12;19.70;52.70
16074;DHT22;8141;52.664;5.074;2023-03-25T19:03:40;19.70;52.60